Lockland, Ohio
Current Conditions -  °F | °C
As of 6:53 PM on Wednesday 22 Oct 2014 (Local Time) from KHAO Reporting Station
Overcast Overcast  
Wind Chill: 51°   Ceiling: 2900
Heat Index: 51°   Visibility: 10mi
Dew Point: 42°   Wind: 5mph
Humidity: 71%   Direction: 70°ENE
Pressure: 30.28"   Gusts: NA
Location:  39.236°N, 84.4599°W
Report Text: KHAO 222253Z AUTO 07004KT 10SM OVC029 11/06 A3028 RMK AO2 SLP255 T01060056
Loading
Personal Weather Stations






























Interactive Weather Map
Tropical Storm Tracking
New forecast layout! Learn more

10-Day Weather Forecast

Advertisements
Track Severe Weather on mobile